createdAt,value
2018-12-20T00:01:36.959Z,25.55
2018-12-20T00:04:06.209Z,27.77
2018-12-20T00:06:35.418Z,27.00
2018-12-20T00:09:06.826Z,28.67
2018-12-20T00:11:36.005Z,28.00
2018-12-20T00:14:05.127Z,27.73
2018-12-20T00:16:34.531Z,28.80
2018-12-20T00:19:03.635Z,28.00
2018-12-20T00:21:32.768Z,26.97
2018-12-20T00:24:01.883Z,26.65
2018-12-20T00:26:31.483Z,27.93
2018-12-20T00:29:00.609Z,27.60
2018-12-20T00:31:29.675Z,29.07
2018-12-20T00:33:59.281Z,28.23
2018-12-20T00:36:28.577Z,26.17
2018-12-20T00:38:58.000Z,28.42
2018-12-20T00:41:27.324Z,29.70
2018-12-20T00:43:56.674Z,28.77
2018-12-20T00:46:25.775Z,29.63
2018-12-20T00:48:55.368Z,30.52
2018-12-20T00:51:24.696Z,30.17
2018-12-20T00:53:54.024Z,30.65
2018-12-20T00:56:23.251Z,32.60
2018-12-20T00:58:53.211Z,31.85
2018-12-20T01:01:23.171Z,30.95
2018-12-20T01:03:52.672Z,30.70
2018-12-20T01:06:21.828Z,29.12
2018-12-20T01:08:50.971Z,30.10
2018-12-20T01:11:20.497Z,31.77
2018-12-20T01:13:49.766Z,32.45
2018-12-20T01:16:18.941Z,30.85
2018-12-20T01:18:48.503Z,31.62
2018-12-20T01:21:18.184Z,29.80
2018-12-20T01:23:47.966Z,31.40
2018-12-20T01:26:17.136Z,31.02
2018-12-20T01:28:46.817Z,30.90
2018-12-20T01:31:16.023Z,33.02
2018-12-20T01:33:45.764Z,33.00
2018-12-20T01:36:15.502Z,32.73
2018-12-20T01:38:45.342Z,33.38
2018-12-20T01:41:14.438Z,33.58
2018-12-20T01:43:43.995Z,31.85
2018-12-20T01:46:13.149Z,32.15
2018-12-20T01:48:43.016Z,32.98
2018-12-20T01:51:12.140Z,31.35
2018-12-20T01:53:41.673Z,33.20
2018-12-20T01:56:11.582Z,32.15
2018-12-20T01:58:40.714Z,34.60
2018-12-20T02:01:10.615Z,31.10
2018-12-20T02:03:39.710Z,33.35
2018-12-20T02:06:09.180Z,32.38
2018-12-20T02:08:38.813Z,33.08
2018-12-20T02:11:08.295Z,33.10
2018-12-20T02:13:37.785Z,32.25
2018-12-20T02:16:07.060Z,32.73
2018-12-20T02:18:36.706Z,33.42
2018-12-20T02:21:05.749Z,32.00
2018-12-20T02:23:35.242Z,33.88
2018-12-20T02:26:04.376Z,32.40
2018-12-20T02:28:34.341Z,32.55
2018-12-20T02:31:03.797Z,31.77
2018-12-20T02:33:32.837Z,33.25
2018-12-20T02:36:02.279Z,33.63
2018-12-20T02:38:32.131Z,33.92
2018-12-20T02:41:01.680Z,33.02
2018-12-20T02:43:31.449Z,34.35
2018-12-20T02:46:01.116Z,31.60
2018-12-20T02:48:30.213Z,33.35
2018-12-20T02:50:59.421Z,32.90
2018-12-20T02:53:28.975Z,35.10
2018-12-20T02:55:58.547Z,35.08
2018-12-20T02:58:27.721Z,35.75
2018-12-20T03:00:57.063Z,35.17
2018-12-20T03:03:26.252Z,34.85
2018-12-20T03:05:55.620Z,35.00
2018-12-20T03:08:25.597Z,36.63
2018-12-20T03:10:54.834Z,34.30
2018-12-20T03:13:23.879Z,36.68
2018-12-20T03:15:53.370Z,34.83
2018-12-20T03:18:22.547Z,34.95
2018-12-20T03:20:51.945Z,33.30
2018-12-20T03:23:21.812Z,36.17
2018-12-20T03:25:51.238Z,36.80
2018-12-20T03:28:20.424Z,34.63
2018-12-20T03:30:50.426Z,35.70
2018-12-20T03:33:19.922Z,34.05
2018-12-20T03:35:50.167Z,36.63
2018-12-20T03:38:19.374Z,35.20
2018-12-20T03:40:48.669Z,37.23
2018-12-20T03:43:17.879Z,34.03
2018-12-20T03:45:47.133Z,35.15
2018-12-20T03:48:17.877Z,34.90
2018-12-20T03:50:47.229Z,35.30
2018-12-20T03:53:17.091Z,35.33
2018-12-20T03:55:46.367Z,35.08
2018-12-20T03:58:15.833Z,37.35
2018-12-20T04:00:45.059Z,35.95
2018-12-20T04:03:14.196Z,35.33
2018-12-20T04:05:43.438Z,32.65
2018-12-20T04:08:12.641Z,35.73
2018-12-20T04:10:42.422Z,34.60
2018-12-20T04:13:11.976Z,36.15
2018-12-20T04:15:41.713Z,36.28
2018-12-20T04:18:10.980Z,36.80
2018-12-20T04:20:40.426Z,34.43
2018-12-20T04:23:09.692Z,37.63
2018-12-20T04:25:38.743Z,35.13
2018-12-20T04:28:07.815Z,36.03
2018-12-20T04:30:37.323Z,34.88
2018-12-20T04:33:07.038Z,36.13
2018-12-20T04:35:36.309Z,35.55
2018-12-20T04:38:05.387Z,34.53
2018-12-20T04:40:34.601Z,34.43
2018-12-20T04:43:04.055Z,35.80
2018-12-20T04:45:33.653Z,35.13
2018-12-20T04:48:04.298Z,33.80
2018-12-20T04:50:34.255Z,32.90
2018-12-20T04:53:03.600Z,32.98
2018-12-20T04:55:33.402Z,35.03
2018-12-20T04:58:02.823Z,33.78
2018-12-20T05:00:32.073Z,32.83
2018-12-20T05:03:02.625Z,35.58
2018-12-20T05:05:32.525Z,33.78
2018-12-20T05:08:02.280Z,33.38
2018-12-20T05:10:31.839Z,32.50
2018-12-20T05:13:01.900Z,33.65
2018-12-20T05:15:31.710Z,33.73
2018-12-20T05:18:00.891Z,34.25
2018-12-20T05:20:30.291Z,33.20
2018-12-20T05:22:59.431Z,32.48
2018-12-20T05:25:28.553Z,33.53
2018-12-20T05:27:58.289Z,31.90
2018-12-20T05:30:27.312Z,32.85
2018-12-20T05:32:56.394Z,32.15
2018-12-20T05:35:25.575Z,34.45
2018-12-20T05:37:55.053Z,32.73
2018-12-20T05:40:24.347Z,33.33
2018-12-20T05:42:53.653Z,32.67
2018-12-20T05:45:22.993Z,31.95
2018-12-20T05:47:52.544Z,33.48
2018-12-20T05:50:21.856Z,32.85
2018-12-20T05:52:51.166Z,32.65
2018-12-20T05:55:20.531Z,32.98
2018-12-20T05:57:49.705Z,33.20
2018-12-20T06:00:19.347Z,34.65
2018-12-20T06:02:48.751Z,34.78
2018-12-20T06:05:18.013Z,33.85
2018-12-20T06:07:47.521Z,40.00
2018-12-20T06:10:16.577Z,36.50
2018-12-20T06:12:46.513Z,37.17
2018-12-20T06:15:15.976Z,34.85
2018-12-20T06:17:45.080Z,32.50
2018-12-20T06:20:14.192Z,35.45
2018-12-20T06:22:43.676Z,35.65
2018-12-20T06:25:12.741Z,31.62
2018-12-20T06:27:42.261Z,33.88
2018-12-20T06:30:11.319Z,33.53
2018-12-20T06:32:40.559Z,33.15
2018-12-20T06:35:10.441Z,34.85
2018-12-20T06:37:39.508Z,33.53
2018-12-20T06:40:08.621Z,35.63
2018-12-20T06:42:37.717Z,33.85
2018-12-20T06:45:06.810Z,35.00
2018-12-20T06:47:36.316Z,34.15
2018-12-20T06:50:06.239Z,34.58
2018-12-20T06:52:35.339Z,39.40
2018-12-20T06:55:04.391Z,35.03
2018-12-20T06:57:33.861Z,34.35
2018-12-20T07:00:02.934Z,34.88
2018-12-20T07:02:32.371Z,34.35
2018-12-20T07:05:01.412Z,38.60
2018-12-20T07:07:31.085Z,33.00
2018-12-20T07:10:00.147Z,34.05
2018-12-20T07:12:29.199Z,33.63
2018-12-20T07:14:59.143Z,34.67
2018-12-20T07:17:28.162Z,34.83
2018-12-20T07:19:57.270Z,33.38
2018-12-20T07:22:26.337Z,32.10
2018-12-20T07:24:55.378Z,33.45
2018-12-20T07:27:24.571Z,35.65
2018-12-20T07:29:53.690Z,37.42
2018-12-20T07:32:25.221Z,35.88
2018-12-20T07:34:54.639Z,33.28
2018-12-20T07:37:24.394Z,35.88
2018-12-20T07:39:53.633Z,37.58
2018-12-20T07:42:24.116Z,35.98
2018-12-20T07:44:54.093Z,36.03
2018-12-20T07:47:24.441Z,35.15
2018-12-20T07:49:53.743Z,35.63
2018-12-20T07:52:23.578Z,34.50
2018-12-20T07:54:52.669Z,35.43
2018-12-20T07:57:21.715Z,35.20
2018-12-20T07:59:51.068Z,33.98
2018-12-20T08:02:21.031Z,34.85
2018-12-20T08:04:50.795Z,34.23
2018-12-20T08:07:20.436Z,34.45
2018-12-20T08:09:49.830Z,33.98
2018-12-20T08:12:19.660Z,35.70
2018-12-20T08:14:48.899Z,32.73
2018-12-20T08:17:18.507Z,35.33
2018-12-20T08:19:47.885Z,32.67
2018-12-20T08:22:16.946Z,34.50
2018-12-20T08:24:46.381Z,34.78
2018-12-20T08:27:16.244Z,34.35
2018-12-20T08:29:47.293Z,33.45
2018-12-20T08:32:16.578Z,33.08
2018-12-20T08:34:45.676Z,34.05
2018-12-20T08:37:15.607Z,33.63
2018-12-20T08:39:44.737Z,34.90
2018-12-20T08:42:13.842Z,34.48
2018-12-20T08:44:43.087Z,32.23
2018-12-20T08:47:12.153Z,32.70
2018-12-20T08:49:42.152Z,32.20
2018-12-20T08:52:11.914Z,33.13
2018-12-20T08:54:41.675Z,33.28
2018-12-20T08:57:10.880Z,32.50
2018-12-20T08:59:40.358Z,33.00
2018-12-20T09:02:09.416Z,33.13
2018-12-20T09:04:40.037Z,33.15
2018-12-20T09:07:09.893Z,35.25
2018-12-20T09:09:39.450Z,32.88
2018-12-20T09:12:09.353Z,34.13
2018-12-20T09:14:38.383Z,34.60
2018-12-20T09:17:07.484Z,34.73
2018-12-20T09:19:36.916Z,33.55
2018-12-20T09:22:06.730Z,33.30
2018-12-20T09:24:36.611Z,32.45
2018-12-20T09:27:05.737Z,33.85
2018-12-20T09:29:35.211Z,32.70
2018-12-20T09:32:06.408Z,31.70
2018-12-20T09:34:35.508Z,34.40
2018-12-20T09:37:05.330Z,33.28
2018-12-20T09:39:35.165Z,32.10
2018-12-20T09:42:04.228Z,31.85
2018-12-20T09:44:33.729Z,36.80
2018-12-20T09:50:07.753Z,31.30
2018-12-20T09:52:37.061Z,32.70
2018-12-20T09:55:06.097Z,32.93
2018-12-20T09:57:35.269Z,31.65
2018-12-20T10:00:07.804Z,32.55
2018-12-20T10:02:38.602Z,32.88
2018-12-20T10:05:08.249Z,32.23
2018-12-20T10:07:37.974Z,32.30
2018-12-20T10:10:07.465Z,29.70
2018-12-20T10:12:37.199Z,32.15
2018-12-20T10:15:08.129Z,32.10
2018-12-20T10:17:37.850Z,31.27
2018-12-20T10:20:08.946Z,30.30
2018-12-20T10:22:38.045Z,31.70
2018-12-20T10:25:08.160Z,32.10
2018-12-20T10:27:38.916Z,29.75
2018-12-20T10:30:08.072Z,30.95
2018-12-20T10:32:37.479Z,32.13
2018-12-20T10:35:06.599Z,31.80
2018-12-20T10:37:36.282Z,29.10
2018-12-20T10:40:05.760Z,31.25
2018-12-20T10:42:34.824Z,30.52
2018-12-20T10:45:04.032Z,27.87
2018-12-20T10:47:33.376Z,31.40
2018-12-20T10:50:02.438Z,30.35
2018-12-20T10:52:31.896Z,29.63
2018-12-20T10:55:02.077Z,31.60
2018-12-20T10:57:31.977Z,30.08
2018-12-20T11:00:01.559Z,30.10
2018-12-20T11:02:36.706Z,29.20
2018-12-20T11:05:08.022Z,30.43
2018-12-20T11:07:42.758Z,31.17
2018-12-20T11:10:30.091Z,30.10
2018-12-20T11:13:01.083Z,27.77
2018-12-20T11:15:31.075Z,28.20
2018-12-20T11:18:00.540Z,28.17
2018-12-20T11:20:30.726Z,29.35
2018-12-20T11:23:00.468Z,27.80
2018-12-20T11:25:29.877Z,28.73
2018-12-20T11:27:59.714Z,28.12
2018-12-20T11:30:29.385Z,27.40
2018-12-20T11:32:59.691Z,30.27
2018-12-20T11:35:28.921Z,28.30
2018-12-20T11:37:58.218Z,28.83
2018-12-20T11:40:27.876Z,28.40
2018-12-20T11:42:57.555Z,28.42
2018-12-20T11:45:26.636Z,29.72
2018-12-20T11:47:56.295Z,28.67
2018-12-20T11:50:26.147Z,26.75
2018-12-20T11:52:56.682Z,28.32
2018-12-20T11:55:25.810Z,28.75
2018-12-20T11:57:55.471Z,26.48
2018-12-20T12:00:25.804Z,26.77
2018-12-20T12:02:54.876Z,26.90
2018-12-20T12:05:23.948Z,28.95
2018-12-20T12:07:53.390Z,26.68
2018-12-20T12:10:22.493Z,26.55
2018-12-20T12:12:52.258Z,27.32
2018-12-20T12:15:21.926Z,27.35
2018-12-20T12:17:54.412Z,27.55
2018-12-20T12:20:22.863Z,26.42
2018-12-20T12:22:52.454Z,27.05
2018-12-20T12:25:21.490Z,26.07
2018-12-20T12:27:51.224Z,25.60
2018-12-20T12:30:21.273Z,25.10
2018-12-20T12:32:50.636Z,26.95
2018-12-20T12:35:20.115Z,26.02
2018-12-20T12:37:49.345Z,28.07
2018-12-20T12:40:19.827Z,26.10
2018-12-20T12:45:47.905Z,25.35
2018-12-20T12:48:17.677Z,26.77
2018-12-20T12:50:46.749Z,27.60
2018-12-20T12:53:15.829Z,24.32
2018-12-20T12:55:46.147Z,26.30
2018-12-20T12:58:15.216Z,26.62
2018-12-20T13:00:45.913Z,27.20
2018-12-20T13:03:15.701Z,26.75
2018-12-20T13:05:45.550Z,24.60
2018-12-20T13:08:14.910Z,25.62
2018-12-20T13:10:43.981Z,24.40
2018-12-20T13:13:13.488Z,25.72
2018-12-20T13:15:43.816Z,25.10
2018-12-20T13:18:13.882Z,24.50
2018-12-20T13:20:44.337Z,25.48
2018-12-20T13:23:13.399Z,24.80
2018-12-20T13:25:42.472Z,23.15
2018-12-20T13:28:11.569Z,23.65
2018-12-20T13:30:41.034Z,24.20
2018-12-20T13:33:10.323Z,24.23
2018-12-20T13:35:40.124Z,24.45
2018-12-20T13:38:10.304Z,23.57
2018-12-20T13:40:39.394Z,23.75
2018-12-20T13:43:09.352Z,25.12
2018-12-20T13:45:38.411Z,23.27
2018-12-20T13:48:07.476Z,22.65
2018-12-20T13:50:36.523Z,25.20
2018-12-20T13:53:05.589Z,26.30
2018-12-20T13:55:35.491Z,24.27
2018-12-20T13:58:04.561Z,24.92
2018-12-20T14:00:34.283Z,23.77
2018-12-20T14:03:03.341Z,24.85
2018-12-20T14:05:32.799Z,23.15
2018-12-20T14:08:03.042Z,27.67
2018-12-20T14:10:32.074Z,26.80
2018-12-20T14:13:02.034Z,24.60
2018-12-20T14:15:31.460Z,26.17
2018-12-20T14:18:01.533Z,23.70
2018-12-20T14:20:30.858Z,26.30
2018-12-20T14:23:00.248Z,25.10
2018-12-20T14:25:30.279Z,24.55
2018-12-20T14:27:59.614Z,26.42
2018-12-20T14:30:28.649Z,22.98
2018-12-20T14:32:57.720Z,25.08
2018-12-20T14:35:27.472Z,24.12
2018-12-20T14:37:56.524Z,24.15
2018-12-20T14:40:25.554Z,26.33
2018-12-20T14:42:54.616Z,26.00
2018-12-20T14:45:24.120Z,23.73
2018-12-20T14:47:53.544Z,23.47
2018-12-20T14:50:22.574Z,25.43
2018-12-20T14:52:51.611Z,24.60
2018-12-20T14:55:20.713Z,25.35
2018-12-20T14:57:50.459Z,24.70
2018-12-20T15:00:19.595Z,23.30
2018-12-20T15:02:48.651Z,24.05
2018-12-20T15:05:17.704Z,24.60
2018-12-20T15:07:47.037Z,25.17
2018-12-20T15:10:16.081Z,25.35
2018-12-20T15:12:45.115Z,24.72
2018-12-20T15:15:14.483Z,24.90
2018-12-20T15:17:43.528Z,25.95
2018-12-20T15:20:12.608Z,25.95
2018-12-20T15:22:41.655Z,26.33
2018-12-20T15:25:10.773Z,25.30
2018-12-20T15:27:39.838Z,26.73
2018-12-20T15:30:10.887Z,25.00
2018-12-20T15:32:39.946Z,25.85
2018-12-20T15:35:09.015Z,25.25
2018-12-20T15:37:38.078Z,26.23
2018-12-20T15:40:08.242Z,25.02
2018-12-20T15:42:37.312Z,24.75
2018-12-20T15:45:07.614Z,25.97
2018-12-20T15:47:36.982Z,25.92
2018-12-20T15:50:07.891Z,27.45
2018-12-20T15:52:36.977Z,25.25
2018-12-20T15:55:06.157Z,25.80
2018-12-20T15:57:35.618Z,27.35
2018-12-20T16:00:08.115Z,25.82
2018-12-20T16:02:37.174Z,27.35
2018-12-20T16:05:06.478Z,26.45
2018-12-20T16:07:35.899Z,29.18
2018-12-20T16:10:07.658Z,27.52
2018-12-20T16:12:36.698Z,27.60
2018-12-20T16:15:05.788Z,29.10
2018-12-20T16:17:34.817Z,27.52
2018-12-20T16:20:04.833Z,28.02
2018-12-20T16:22:33.899Z,28.25
2018-12-20T16:25:02.917Z,26.65
2018-12-20T16:27:31.960Z,27.85
2018-12-20T16:30:01.038Z,25.12
2018-12-20T16:32:30.076Z,25.48
2018-12-20T16:34:59.837Z,24.70
2018-12-20T16:37:28.938Z,24.37
2018-12-20T16:39:57.988Z,25.12
2018-12-20T16:42:27.019Z,23.60
2018-12-20T16:44:56.046Z,22.82
2018-12-20T16:47:25.198Z,22.50
2018-12-20T16:49:55.669Z,24.27
2018-12-20T16:52:24.719Z,23.05
2018-12-20T16:54:53.807Z,24.50
2018-12-20T16:57:22.868Z,23.05
2018-12-20T16:59:52.241Z,24.57
2018-12-20T17:02:21.291Z,22.05
2018-12-20T17:04:50.353Z,24.27
2018-12-20T17:07:20.316Z,22.80
2018-12-20T17:09:50.193Z,22.95
2018-12-20T17:12:19.273Z,22.70
2018-12-20T17:14:48.327Z,23.45
2018-12-20T17:17:17.796Z,22.90
2018-12-20T17:19:46.852Z,24.57
2018-12-20T17:22:15.907Z,25.20
2018-12-20T17:24:44.980Z,21.77
2018-12-20T17:27:14.027Z,22.05
2018-12-20T17:29:43.054Z,22.73
2018-12-20T17:32:13.396Z,24.45
2018-12-20T17:34:42.710Z,23.15
2018-12-20T17:37:12.184Z,23.42
2018-12-20T17:39:41.223Z,23.18
2018-12-20T17:42:10.291Z,23.60
2018-12-20T17:44:39.392Z,21.90
2018-12-20T17:47:08.445Z,23.27
2018-12-20T17:49:37.544Z,22.30
2018-12-20T17:52:06.605Z,24.92
2018-12-20T17:54:35.659Z,22.82
2018-12-20T17:57:05.084Z,23.35
2018-12-20T17:59:34.339Z,22.80
2018-12-20T18:02:03.375Z,21.45
2018-12-20T18:04:32.444Z,21.82
2018-12-20T18:07:01.843Z,21.30
2018-12-20T18:09:30.896Z,21.02
2018-12-20T18:11:59.960Z,20.75
2018-12-20T18:14:29.180Z,19.87
2018-12-20T18:16:58.635Z,21.00
2018-12-20T18:19:28.075Z,21.20
2018-12-20T18:21:57.104Z,19.00
2018-12-20T18:24:26.173Z,21.37
2018-12-20T18:26:55.333Z,21.85
2018-12-20T18:29:24.478Z,20.95
2018-12-20T18:31:53.552Z,21.30
2018-12-20T18:34:22.679Z,21.80
2018-12-20T18:36:52.038Z,21.10
2018-12-20T18:39:21.395Z,22.32
2018-12-20T18:41:50.751Z,21.90
2018-12-20T18:44:19.787Z,22.40
2018-12-20T18:46:48.861Z,23.90
2018-12-20T18:49:17.939Z,24.82
2018-12-20T18:51:47.030Z,22.55
2018-12-20T18:54:16.053Z,23.02
2018-12-20T18:56:45.093Z,22.20
2018-12-20T18:59:14.661Z,22.37
2018-12-20T19:01:43.744Z,21.02
2018-12-20T19:04:12.805Z,22.52
2018-12-20T19:06:41.968Z,22.25
2018-12-20T19:09:11.013Z,44.55
2018-12-20T19:11:40.071Z,24.00
2018-12-20T19:14:09.128Z,20.30
2018-12-20T19:16:38.189Z,20.75
2018-12-20T19:19:07.551Z,21.33
2018-12-20T19:21:36.580Z,19.80
2018-12-20T19:24:05.969Z,21.10
2018-12-20T19:26:34.991Z,21.27
2018-12-20T19:29:04.024Z,19.92
2018-12-20T19:31:33.369Z,20.45
2018-12-20T19:34:02.461Z,20.10
2018-12-20T19:36:31.511Z,21.23
2018-12-20T19:39:00.577Z,19.62
2018-12-20T19:41:29.678Z,20.35
2018-12-20T19:43:58.766Z,20.45
2018-12-20T19:46:28.664Z,20.43
2018-12-20T19:48:58.496Z,20.00
2018-12-20T19:51:27.801Z,19.00
2018-12-20T19:53:56.833Z,19.30
2018-12-20T19:56:25.900Z,19.75
2018-12-20T19:58:54.964Z,18.82
2018-12-20T20:01:24.020Z,19.95
2018-12-20T20:03:53.699Z,18.92
2018-12-20T20:06:22.726Z,17.92
2018-12-20T20:08:51.830Z,17.25
2018-12-20T20:11:22.285Z,17.52
2018-12-20T20:13:51.921Z,17.40
2018-12-20T20:16:20.947Z,17.02
2018-12-20T20:18:50.041Z,19.45
2018-12-20T20:21:20.136Z,18.80
2018-12-20T20:23:49.596Z,18.62
2018-12-20T20:26:18.652Z,18.02
2018-12-20T20:28:48.353Z,16.32
2018-12-20T20:31:17.794Z,18.37
2018-12-20T20:33:46.845Z,17.15
2018-12-20T20:36:15.908Z,17.02
2018-12-20T20:38:44.997Z,16.82
2018-12-20T20:41:14.052Z,16.42
2018-12-20T20:43:43.070Z,15.65
2018-12-20T20:46:12.103Z,16.15
2018-12-20T20:48:41.135Z,15.03
2018-12-20T20:51:10.204Z,16.05
2018-12-20T20:53:39.257Z,16.50
2018-12-20T20:56:08.582Z,17.23
2018-12-20T20:58:38.376Z,16.05
2018-12-20T21:01:07.457Z,15.78
2018-12-20T21:03:36.513Z,15.63
2018-12-20T21:06:06.101Z,16.20
2018-12-20T21:08:35.167Z,16.25
2018-12-20T21:11:04.273Z,15.10
2018-12-20T21:13:33.895Z,13.70
2018-12-20T21:16:03.456Z,14.50
2018-12-20T21:18:32.530Z,14.65
2018-12-20T21:21:02.017Z,12.25
2018-12-20T21:23:31.408Z,12.90
2018-12-20T21:26:00.776Z,13.10
2018-12-20T21:28:29.790Z,13.78
2018-12-20T21:30:58.831Z,12.37
2018-12-20T21:33:28.300Z,12.60
2018-12-20T21:35:57.727Z,11.90
2018-12-20T21:38:26.800Z,12.98
2018-12-20T21:40:55.856Z,12.05
2018-12-20T21:43:24.903Z,12.15
2018-12-20T21:45:53.979Z,11.65
2018-12-20T21:48:23.993Z,11.65
2018-12-20T21:50:53.393Z,10.20
2018-12-20T21:53:22.878Z,10.20
2018-12-20T21:55:51.965Z,10.95
2018-12-20T21:58:21.391Z,10.58
2018-12-20T22:00:50.453Z,10.60
2018-12-20T22:03:19.512Z,10.25
2018-12-20T22:05:48.600Z,9.80
2018-12-20T22:08:17.689Z,10.60
2018-12-20T22:10:47.135Z,10.75
2018-12-20T22:13:16.471Z,10.05
2018-12-20T22:15:45.531Z,10.53
2018-12-20T22:18:14.594Z,11.25
2018-12-20T22:20:47.299Z,10.13
2018-12-20T22:23:14.701Z,10.15
2018-12-20T22:25:43.893Z,10.20
2018-12-20T22:28:12.926Z,9.00
2018-12-20T22:30:41.987Z,8.85
2018-12-20T22:33:11.440Z,8.30
2018-12-20T22:35:40.485Z,9.33
2018-12-20T22:38:09.845Z,8.78
2018-12-20T22:40:38.855Z,9.38
2018-12-20T22:43:07.882Z,9.48
2018-12-20T22:45:37.347Z,9.00
2018-12-20T22:48:06.404Z,8.95
2018-12-20T22:50:35.816Z,7.97
2018-12-20T22:53:07.073Z,8.68
2018-12-20T22:55:35.899Z,9.73
2018-12-20T22:58:05.326Z,8.50
2018-12-20T23:00:34.353Z,8.98
2018-12-20T23:03:03.382Z,8.55
2018-12-20T23:05:32.857Z,9.25
2018-12-20T23:08:01.878Z,8.75
2018-12-20T23:10:31.363Z,7.72
2018-12-20T23:13:00.375Z,7.70
2018-12-20T23:15:30.141Z,7.95
2018-12-20T23:17:59.238Z,8.95
2018-12-20T23:20:28.848Z,7.55
2018-12-20T23:22:57.935Z,7.78
2018-12-20T23:25:27.025Z,7.47
2018-12-20T23:27:56.977Z,7.95
2018-12-20T23:30:26.271Z,7.95
2018-12-20T23:32:55.308Z,7.75
2018-12-20T23:35:24.355Z,7.00
2018-12-20T23:37:53.404Z,7.72
2018-12-20T23:40:22.451Z,8.45
2018-12-20T23:42:51.468Z,6.90
2018-12-20T23:45:20.528Z,6.97
2018-12-20T23:47:49.571Z,7.33
2018-12-20T23:50:19.058Z,6.70
2018-12-20T23:52:48.100Z,6.92
2018-12-20T23:55:17.195Z,6.95
2018-12-20T23:57:47.739Z,6.50
